createdAt,value
2023-04-03T00:01:23.645Z,99.90
2023-04-03T00:03:56.872Z,99.90
2023-04-03T00:06:29.598Z,99.90
2023-04-03T00:09:02.653Z,99.90
2023-04-03T00:11:35.301Z,99.90
2023-04-03T00:14:08.240Z,99.90
2023-04-03T00:16:41.153Z,99.90
2023-04-03T00:19:14.076Z,99.90
2023-04-03T00:21:47.023Z,99.90
2023-04-03T00:24:19.867Z,99.90
2023-04-03T00:26:52.558Z,99.90
2023-04-03T00:29:26.156Z,99.90
2023-04-03T00:31:58.880Z,99.90
2023-04-03T00:34:31.811Z,99.90
2023-04-03T00:37:04.756Z,99.90
2023-04-03T00:39:37.675Z,99.90
2023-04-03T00:42:10.407Z,99.90
2023-04-03T00:44:43.797Z,99.90
2023-04-03T00:47:18.080Z,99.90
2023-04-03T00:49:52.315Z,99.90
2023-04-03T00:52:30.582Z,99.90
2023-04-03T00:55:06.780Z,99.90
2023-04-03T00:57:39.649Z,99.90
2023-04-03T01:00:17.201Z,99.90
2023-04-03T01:02:52.352Z,99.90
2023-04-03T01:05:25.284Z,99.90
2023-04-03T01:07:58.805Z,99.90
2023-04-03T01:10:31.817Z,99.90
2023-04-03T01:13:26.597Z,99.90
2023-04-03T01:16:07.024Z,99.90
2023-04-03T01:18:41.222Z,99.90
2023-04-03T01:21:18.555Z,99.90
2023-04-03T01:24:12.474Z,99.90
2023-04-03T01:26:46.000Z,99.90
2023-04-03T01:29:20.156Z,99.90
2023-04-03T01:31:58.882Z,99.90
2023-04-03T01:34:32.162Z,99.90
2023-04-03T01:37:06.031Z,99.90
2023-04-03T01:39:38.739Z,99.90
2023-04-03T01:42:12.464Z,99.90
2023-04-03T01:44:48.537Z,99.90
2023-04-03T01:47:21.516Z,99.90
2023-04-03T01:49:54.321Z,99.90
2023-04-03T01:52:27.488Z,99.90
2023-04-03T01:55:00.267Z,99.90
2023-04-03T01:57:33.299Z,99.90
2023-04-03T02:00:06.806Z,99.90
2023-04-03T02:02:45.926Z,99.90
2023-04-03T02:05:20.392Z,99.90
2023-04-03T02:07:53.442Z,99.90
2023-04-03T02:10:26.234Z,99.90
2023-04-03T02:12:59.309Z,99.90
2023-04-03T02:15:32.069Z,99.90
2023-04-03T02:18:07.460Z,99.90
2023-04-03T02:20:40.728Z,99.90
2023-04-03T02:23:13.579Z,99.90
2023-04-03T02:25:46.308Z,99.90
2023-04-03T02:28:19.185Z,99.90
2023-04-03T02:30:51.961Z,99.90
2023-04-03T02:33:24.872Z,99.90
2023-04-03T02:35:58.926Z,99.90
2023-04-03T02:38:32.094Z,99.90
2023-04-03T02:41:07.543Z,99.90
2023-04-03T02:43:40.785Z,99.90
2023-04-03T02:46:15.943Z,99.90
2023-04-03T02:48:49.064Z,99.90
2023-04-03T02:51:22.283Z,99.90
2023-04-03T02:53:55.435Z,99.90
2023-04-03T02:56:32.160Z,99.90
2023-04-03T02:59:06.016Z,99.90
2023-04-03T03:01:40.924Z,99.90
2023-04-03T03:04:13.791Z,99.90
2023-04-03T03:06:47.712Z,99.90
2023-04-03T03:09:20.642Z,99.90
2023-04-03T03:11:53.684Z,99.90
2023-04-03T03:14:26.594Z,99.90
2023-04-03T03:16:59.326Z,99.90
2023-04-03T03:19:32.851Z,99.90
2023-04-03T03:22:05.570Z,99.90
2023-04-03T03:24:38.454Z,99.90
2023-04-03T03:27:11.197Z,99.90
2023-04-03T03:29:44.110Z,99.90
2023-04-03T03:32:17.302Z,99.90
2023-04-03T03:34:50.120Z,99.90
2023-04-03T03:37:22.838Z,99.90
2023-04-03T03:39:55.651Z,99.90
2023-04-03T03:42:28.302Z,99.90
2023-04-03T03:45:01.293Z,99.90
2023-04-03T03:47:34.082Z,99.90
2023-04-03T03:50:07.700Z,99.90
2023-04-03T03:52:40.618Z,99.90
2023-04-03T03:55:13.644Z,99.90
2023-04-03T03:57:46.931Z,99.90
2023-04-03T04:00:20.526Z,99.90
2023-04-03T04:02:59.541Z,99.90
2023-04-03T04:05:34.201Z,99.90
2023-04-03T04:08:07.721Z,99.90
2023-04-03T04:10:40.969Z,99.90
2023-04-03T04:13:14.176Z,99.90
2023-04-03T04:15:47.389Z,99.90
2023-04-03T04:18:23.423Z,99.90
2023-04-03T04:20:56.403Z,99.90
2023-04-03T04:23:29.600Z,99.90
2023-04-03T04:26:04.150Z,99.90
2023-04-03T04:28:41.191Z,99.90
2023-04-03T04:31:14.396Z,99.90
2023-04-03T04:33:47.494Z,99.90
2023-04-03T04:36:21.670Z,99.90
2023-04-03T04:38:55.609Z,99.90
2023-04-03T04:41:30.861Z,99.90
2023-04-03T04:44:04.219Z,99.90
2023-04-03T04:46:37.630Z,99.90
2023-04-03T04:49:11.431Z,99.90
2023-04-03T04:51:52.036Z,99.90
2023-04-03T04:54:50.414Z,99.90
2023-04-03T04:57:23.724Z,99.90
2023-04-03T04:59:56.772Z,99.90
2023-04-03T05:02:29.630Z,99.90
2023-04-03T05:05:04.851Z,99.90
2023-04-03T05:07:38.649Z,99.90
2023-04-03T05:10:12.099Z,99.90
2023-04-03T05:12:45.901Z,99.90
2023-04-03T05:15:18.910Z,99.90
2023-04-03T05:17:52.541Z,99.90
2023-04-03T05:20:25.697Z,99.90
2023-04-03T05:22:58.652Z,99.90
2023-04-03T05:25:31.566Z,99.90
2023-04-03T05:28:05.467Z,99.90
2023-04-03T05:30:38.352Z,99.90
2023-04-03T05:33:12.063Z,99.90
2023-04-03T05:35:54.443Z,99.90
2023-04-03T05:38:32.342Z,99.90
2023-04-03T05:41:06.023Z,99.90
2023-04-03T05:43:39.891Z,99.90
2023-04-03T05:46:17.420Z,99.90
2023-04-03T05:48:52.956Z,99.90
2023-04-03T05:51:35.955Z,99.90
2023-04-03T05:54:21.869Z,99.90
2023-04-03T05:56:54.804Z,99.90
2023-04-03T05:59:28.565Z,99.90
2023-04-03T06:02:04.143Z,99.90
2023-04-03T06:04:37.592Z,99.90
2023-04-03T06:07:16.695Z,99.90
2023-04-03T06:09:52.208Z,99.90
2023-04-03T06:12:25.598Z,99.90
2023-04-03T06:14:59.089Z,99.90
2023-04-03T06:17:32.087Z,99.90
2023-04-03T06:20:05.983Z,99.90
2023-04-03T06:22:38.859Z,99.90
2023-04-03T06:25:12.056Z,99.90
2023-04-03T06:27:44.711Z,99.90
2023-04-03T06:30:17.484Z,99.90
2023-04-03T06:32:50.227Z,99.90
2023-04-03T06:35:24.663Z,99.90
2023-04-03T06:37:57.736Z,99.90
2023-04-03T06:40:30.594Z,99.90
2023-04-03T06:43:03.492Z,99.90
2023-04-03T06:45:37.357Z,99.90
2023-04-03T06:48:10.372Z,99.90
2023-04-03T06:50:43.337Z,99.90
2023-04-03T06:53:16.556Z,99.90
2023-04-03T06:55:49.347Z,99.90
2023-04-03T06:58:23.294Z,99.90
2023-04-03T07:00:56.833Z,99.90
2023-04-03T07:03:29.555Z,99.90
2023-04-03T07:06:02.443Z,99.90
2023-04-03T07:08:36.056Z,99.90
2023-04-03T07:11:11.084Z,99.90
2023-04-03T07:13:44.216Z,99.90
2023-04-03T07:16:16.999Z,99.90
2023-04-03T07:18:49.999Z,99.90
2023-04-03T07:21:22.680Z,99.90
2023-04-03T07:23:56.063Z,99.90
2023-04-03T07:26:28.863Z,99.90
2023-04-03T07:29:02.164Z,99.90
2023-04-03T07:31:35.573Z,99.90
2023-04-03T07:34:09.447Z,99.90
2023-04-03T07:36:42.517Z,99.90
2023-04-03T07:39:15.877Z,99.90
2023-04-03T07:41:48.564Z,99.90
2023-04-03T07:44:21.494Z,99.90
2023-04-03T07:46:54.245Z,99.90
2023-04-03T07:49:27.147Z,99.90
2023-04-03T07:52:00.138Z,99.90
2023-04-03T07:54:32.843Z,99.90
2023-04-03T07:57:06.091Z,99.90
2023-04-03T07:59:39.890Z,99.90
2023-04-03T08:02:13.486Z,99.90
2023-04-03T08:04:46.626Z,99.90
2023-04-03T08:07:19.458Z,99.90
2023-04-03T08:09:52.734Z,99.90
2023-04-03T08:12:25.446Z,99.90
2023-04-03T08:14:58.305Z,99.90
2023-04-03T08:17:31.319Z,99.90
2023-04-03T08:20:07.586Z,99.90
2023-04-03T08:22:40.530Z,99.90
2023-04-03T08:25:13.360Z,99.90
2023-04-03T08:27:46.295Z,99.90
2023-04-03T08:30:19.073Z,99.90
2023-04-03T08:32:52.002Z,99.90
2023-04-03T08:35:24.691Z,99.90
2023-04-03T08:37:57.724Z,99.90
2023-04-03T08:40:33.065Z,99.90
2023-04-03T08:43:32.552Z,99.90
2023-04-03T08:46:12.620Z,99.90
2023-04-03T08:48:45.497Z,99.90
2023-04-03T08:51:21.577Z,99.90
2023-04-03T08:54:03.317Z,99.90
2023-04-03T08:56:36.396Z,99.90
2023-04-03T08:59:24.160Z,99.90
2023-04-03T09:02:00.244Z,99.90
2023-04-03T09:04:36.623Z,99.90
2023-04-03T09:07:18.908Z,99.90
2023-04-03T09:09:51.936Z,99.90
2023-04-03T09:12:30.919Z,99.90
2023-04-03T09:15:31.421Z,99.90
2023-04-03T09:18:34.253Z,99.90
2023-04-03T09:21:32.160Z,99.90
2023-04-03T09:24:08.813Z,99.90
2023-04-03T09:26:41.557Z,99.90
2023-04-03T09:29:21.601Z,99.90
2023-04-03T09:32:00.519Z,99.90
2023-04-03T09:34:37.357Z,99.90
2023-04-03T09:37:10.143Z,99.90
2023-04-03T09:39:55.099Z,99.90
2023-04-03T09:42:27.935Z,99.90
2023-04-03T09:45:06.359Z,99.90
2023-04-03T09:47:39.522Z,99.90
2023-04-03T09:50:15.305Z,99.90
2023-04-03T09:52:53.093Z,99.90
2023-04-03T09:55:29.485Z,99.90
2023-04-03T09:58:04.912Z,99.90
2023-04-03T10:00:40.579Z,99.90
2023-04-03T10:03:44.859Z,99.90
2023-04-03T10:06:24.881Z,99.90
2023-04-03T10:09:06.664Z,99.90
2023-04-03T10:11:57.725Z,99.90
2023-04-03T10:14:31.001Z,99.90
2023-04-03T10:17:20.623Z,99.90
2023-04-03T10:20:10.271Z,99.90
2023-04-03T10:22:43.208Z,99.90
2023-04-03T10:25:22.280Z,99.90
2023-04-03T10:28:01.124Z,99.90
2023-04-03T10:31:03.448Z,99.90
2023-04-03T10:34:12.578Z,99.90
2023-04-03T10:36:45.175Z,99.90
2023-04-03T10:39:25.160Z,99.90
2023-04-03T10:42:16.056Z,99.90
2023-04-03T10:45:18.625Z,99.90
2023-04-03T10:48:12.097Z,99.90
2023-04-03T10:50:47.650Z,99.90
2023-04-03T10:53:53.616Z,99.90
2023-04-03T10:56:29.347Z,99.90
2023-04-03T10:59:18.236Z,99.90
2023-04-03T11:02:01.557Z,99.90
2023-04-03T11:04:38.751Z,99.90
2023-04-03T11:07:24.044Z,99.90
2023-04-03T11:10:04.775Z,99.90
2023-04-03T11:13:02.722Z,99.90
2023-04-03T11:15:36.156Z,99.90
2023-04-03T11:18:16.988Z,99.90
2023-04-03T11:21:08.424Z,99.90
2023-04-03T11:23:49.667Z,99.90
2023-04-03T11:26:29.347Z,99.90
2023-04-03T11:29:15.823Z,99.90
2023-04-03T11:32:24.189Z,99.90
2023-04-03T11:35:00.193Z,99.90
2023-04-03T11:37:39.055Z,99.90
2023-04-03T11:40:22.378Z,99.90
2023-04-03T11:42:59.497Z,99.90
2023-04-03T11:45:40.173Z,99.90
2023-04-03T11:48:25.028Z,99.90
2023-04-03T11:51:11.336Z,99.90
2023-04-03T11:53:45.025Z,99.90
2023-04-03T11:56:27.114Z,99.90
2023-04-03T11:59:05.925Z,99.60
2023-04-03T12:01:52.123Z,99.90
2023-04-03T12:04:27.570Z,98.60
2023-04-03T12:07:20.023Z,98.30
2023-04-03T12:09:58.303Z,99.10
2023-04-03T12:12:37.719Z,99.10
2023-04-03T12:15:22.283Z,99.90
2023-04-03T12:17:55.419Z,99.90
2023-04-03T12:20:49.938Z,99.90
2023-04-03T12:23:33.337Z,99.90
2023-04-03T12:26:22.645Z,99.90
2023-04-03T12:28:56.494Z,99.20
2023-04-03T12:31:46.726Z,96.30
2023-04-03T12:34:42.304Z,95.20
2023-04-03T12:37:52.763Z,93.00
2023-04-03T12:40:59.101Z,99.10
2023-04-03T12:43:41.076Z,99.40
2023-04-03T12:46:22.488Z,99.20
2023-04-03T12:48:58.604Z,99.70
2023-04-03T12:51:42.875Z,98.60
2023-04-03T12:54:31.833Z,97.70
2023-04-03T12:57:24.619Z,98.20
2023-04-03T12:59:57.817Z,97.50
2023-04-03T13:02:37.891Z,97.70
2023-04-03T13:05:17.608Z,98.90
2023-04-03T13:07:58.995Z,99.90
2023-04-03T13:10:33.592Z,99.90
2023-04-03T13:13:10.593Z,99.90
2023-04-03T13:15:49.986Z,99.90
2023-04-03T13:18:37.216Z,99.90
2023-04-03T13:21:17.921Z,99.90
2023-04-03T13:23:57.779Z,99.90
2023-04-03T13:26:36.643Z,99.90
2023-04-03T13:29:30.882Z,99.90
2023-04-03T13:32:06.857Z,99.90
2023-04-03T13:34:45.851Z,99.90
2023-04-03T13:37:27.746Z,99.90
2023-04-03T13:40:09.663Z,99.90
2023-04-03T13:42:42.701Z,99.90
2023-04-03T13:45:30.849Z,99.90
2023-04-03T13:48:23.328Z,99.90
2023-04-03T13:51:04.216Z,99.90
2023-04-03T13:53:45.719Z,99.90
2023-04-03T13:56:44.829Z,99.90
2023-04-03T13:59:17.446Z,99.90
2023-04-03T14:02:29.590Z,99.90
2023-04-03T14:05:04.268Z,99.90
2023-04-03T14:07:37.235Z,99.90
2023-04-03T14:10:10.413Z,99.90
2023-04-03T14:12:43.631Z,99.90
2023-04-03T14:15:25.138Z,99.90
2023-04-03T14:17:59.726Z,99.90
2023-04-03T14:20:33.776Z,99.90
2023-04-03T14:23:07.427Z,99.90
2023-04-03T14:25:40.947Z,99.90
2023-04-03T14:28:22.954Z,99.90
2023-04-03T14:30:55.858Z,99.90
2023-04-03T14:33:32.046Z,99.90
2023-04-03T14:36:20.840Z,99.90
2023-04-03T14:38:55.048Z,99.90
2023-04-03T14:41:28.570Z,99.90
2023-04-03T14:44:01.598Z,99.90
2023-04-03T14:46:54.576Z,99.90
2023-04-03T14:49:30.060Z,99.90
2023-04-03T14:52:02.715Z,99.90
2023-04-03T14:54:36.476Z,99.90
2023-04-03T14:57:12.598Z,99.90
2023-04-03T14:59:46.570Z,99.90
2023-04-03T15:02:29.659Z,99.90
2023-04-03T15:05:06.696Z,99.90
2023-04-03T15:07:52.947Z,99.90
2023-04-03T15:10:28.160Z,99.90
2023-04-03T15:13:01.415Z,99.90
2023-04-03T15:15:39.868Z,99.90
2023-04-03T15:18:27.644Z,99.90
2023-04-03T15:21:01.235Z,99.90
2023-04-03T15:23:34.313Z,99.90
2023-04-03T15:26:07.361Z,99.90
2023-04-03T15:28:42.661Z,99.90
2023-04-03T15:31:15.413Z,99.90
2023-04-03T15:33:48.083Z,99.90
2023-04-03T15:36:33.290Z,99.90
2023-04-03T15:39:07.191Z,99.90
2023-04-03T15:41:39.878Z,99.90
2023-04-03T15:44:13.201Z,99.90
2023-04-03T15:46:47.590Z,99.90
2023-04-03T15:49:22.335Z,99.90
2023-04-03T15:51:55.055Z,99.90
2023-04-03T15:54:27.974Z,99.90
2023-04-03T15:57:00.689Z,99.90
2023-04-03T15:59:33.412Z,99.90
2023-04-03T16:02:08.678Z,99.90
2023-04-03T16:04:41.824Z,99.90
2023-04-03T16:07:14.546Z,99.90
2023-04-03T16:09:47.319Z,99.90
2023-04-03T16:12:20.041Z,99.90
2023-04-03T16:14:52.778Z,99.90
2023-04-03T16:17:27.028Z,99.90
2023-04-03T16:20:00.201Z,99.90
2023-04-03T16:22:33.669Z,99.90
2023-04-03T16:25:09.272Z,99.90
2023-04-03T16:27:42.072Z,99.90
2023-04-03T16:30:14.892Z,99.90
2023-04-03T16:32:47.777Z,99.90
2023-04-03T16:35:20.631Z,99.90
2023-04-03T16:37:53.377Z,99.90
2023-04-03T16:40:26.089Z,99.90
2023-04-03T16:42:58.738Z,99.90
2023-04-03T16:45:31.903Z,99.90
2023-04-03T16:48:05.116Z,99.90
2023-04-03T16:50:37.824Z,99.90
2023-04-03T16:53:10.637Z,99.90
2023-04-03T16:55:43.436Z,99.90
2023-04-03T16:58:16.246Z,99.90
2023-04-03T17:00:49.046Z,99.90
2023-04-03T17:03:24.338Z,99.90
2023-04-03T17:05:57.640Z,99.90
2023-04-03T17:08:30.281Z,99.90
2023-04-03T17:11:03.096Z,99.90
2023-04-03T17:13:35.974Z,99.90
2023-04-03T17:16:11.983Z,99.90
2023-04-03T17:18:45.601Z,99.90
2023-04-03T17:21:18.702Z,99.90
2023-04-03T17:23:58.151Z,99.90
2023-04-03T17:26:31.314Z,99.90
2023-04-03T17:29:04.603Z,99.90
2023-04-03T17:31:37.820Z,99.90
2023-04-03T17:34:12.005Z,99.90
2023-04-03T17:36:44.806Z,99.90
2023-04-03T17:39:17.496Z,99.90
2023-04-03T17:41:50.392Z,99.90
2023-04-03T17:44:23.252Z,99.90
2023-04-03T17:46:55.957Z,99.90
2023-04-03T17:49:28.664Z,99.90
2023-04-03T17:52:01.348Z,99.90
2023-04-03T17:54:34.102Z,99.90
2023-04-03T17:57:08.802Z,99.90
2023-04-03T17:59:41.644Z,99.90
2023-04-03T18:02:14.384Z,99.90
2023-04-03T18:04:47.082Z,99.90
2023-04-03T18:07:20.400Z,99.90
2023-04-03T18:09:53.843Z,99.90
2023-04-03T18:12:26.677Z,99.90
2023-04-03T18:15:00.341Z,99.90
2023-04-03T18:17:33.248Z,99.90
2023-04-03T18:20:06.564Z,99.90
2023-04-03T18:22:39.268Z,99.90
2023-04-03T18:25:14.095Z,99.90
2023-04-03T18:27:48.138Z,99.90
2023-04-03T18:30:22.696Z,99.90
2023-04-03T18:32:55.797Z,99.90
2023-04-03T18:35:28.729Z,99.90
2023-04-03T18:38:01.429Z,99.90
2023-04-03T18:40:34.605Z,99.90
2023-04-03T18:43:07.274Z,99.90
2023-04-03T18:45:41.067Z,99.90
2023-04-03T18:48:14.501Z,99.90
2023-04-03T18:50:49.190Z,99.90
2023-04-03T18:53:22.611Z,99.90
2023-04-03T18:55:55.360Z,99.90
2023-04-03T18:58:28.082Z,99.90
2023-04-03T19:01:01.367Z,99.90
2023-04-03T19:03:36.968Z,99.90
2023-04-03T19:06:10.512Z,99.90
2023-04-03T19:08:43.399Z,99.90
2023-04-03T19:11:16.184Z,99.90
2023-04-03T19:14:09.670Z,99.90
2023-04-03T19:16:41.698Z,99.90
2023-04-03T19:19:14.525Z,99.90
2023-04-03T19:21:47.220Z,99.90
2023-04-03T19:24:20.607Z,99.90
2023-04-03T19:26:53.357Z,99.90
2023-04-03T19:29:26.068Z,99.90
2023-04-03T19:31:58.771Z,99.90
2023-04-03T19:34:31.527Z,99.90
2023-04-03T19:37:04.925Z,99.90
2023-04-03T19:39:38.642Z,99.90
2023-04-03T19:42:12.120Z,99.90
2023-04-03T19:44:46.059Z,99.90
2023-04-03T19:47:19.606Z,99.90
2023-04-03T19:49:52.304Z,99.90
2023-04-03T19:52:25.183Z,99.90
2023-04-03T19:54:57.886Z,99.90
2023-04-03T19:57:30.982Z,99.90
2023-04-03T20:00:04.382Z,99.90
2023-04-03T20:02:43.954Z,99.90
2023-04-03T20:05:16.684Z,99.90
2023-04-03T20:07:50.433Z,99.90
2023-04-03T20:10:23.257Z,99.90
2023-04-03T20:12:56.127Z,99.90
2023-04-03T20:15:30.380Z,99.90
2023-04-03T20:18:03.423Z,99.90
2023-04-03T20:20:41.850Z,99.90
2023-04-03T20:23:15.253Z,99.90
2023-04-03T20:25:58.019Z,99.90
2023-04-03T20:28:39.157Z,99.90
2023-04-03T20:31:14.090Z,99.90
2023-04-03T20:33:48.482Z,99.90
2023-04-03T20:36:23.418Z,99.90
2023-04-03T20:38:57.006Z,99.90
2023-04-03T20:41:29.940Z,99.90
2023-04-03T20:44:02.856Z,99.90
2023-04-03T20:46:51.300Z,99.90
2023-04-03T20:49:25.739Z,99.90
2023-04-03T20:51:58.398Z,99.90
2023-04-03T20:54:31.551Z,99.90
2023-04-03T20:57:04.456Z,99.90
2023-04-03T20:59:39.279Z,99.90
2023-04-03T21:02:12.555Z,99.90
2023-04-03T21:04:53.732Z,99.90
2023-04-03T21:08:04.438Z,99.90
2023-04-03T21:11:15.904Z,99.90
2023-04-03T21:14:29.301Z,99.90
2023-04-03T21:17:02.476Z,99.90
2023-04-03T21:19:40.058Z,99.90
2023-04-03T21:22:13.508Z,99.90
2023-04-03T21:24:46.180Z,99.90
2023-04-03T21:27:18.933Z,99.90
2023-04-03T21:29:52.262Z,99.90
2023-04-03T21:32:25.001Z,99.90
2023-04-03T21:34:58.081Z,99.90
2023-04-03T21:37:33.561Z,99.90
2023-04-03T21:40:07.908Z,99.90
2023-04-03T21:42:40.583Z,99.90
2023-04-03T21:45:16.017Z,99.90
2023-04-03T21:47:48.845Z,99.90
2023-04-03T21:50:21.542Z,99.90
2023-04-03T21:52:54.449Z,99.90
2023-04-03T21:55:27.166Z,99.90
2023-04-03T21:58:00.066Z,99.90
2023-04-03T22:00:32.902Z,99.90
2023-04-03T22:03:10.275Z,99.90
2023-04-03T22:05:43.287Z,99.90
2023-04-03T22:08:17.853Z,99.90
2023-04-03T22:10:51.233Z,99.90
2023-04-03T22:13:23.918Z,99.90
2023-04-03T22:15:57.527Z,99.90
2023-04-03T22:18:30.420Z,99.90
2023-04-03T22:21:03.309Z,99.90
2023-04-03T22:23:36.271Z,99.90
2023-04-03T22:26:11.190Z,99.90
2023-04-03T22:28:45.972Z,99.90
2023-04-03T22:31:19.187Z,99.90
2023-04-03T22:33:51.898Z,99.90
2023-04-03T22:36:24.539Z,99.90
2023-04-03T22:38:57.622Z,99.90
2023-04-03T22:41:30.274Z,99.90
2023-04-03T22:44:03.185Z,99.90
2023-04-03T22:46:36.261Z,99.90
2023-04-03T22:49:08.990Z,99.90
2023-04-03T22:51:41.720Z,99.90
2023-04-03T22:54:14.570Z,99.90
2023-04-03T22:56:47.355Z,99.90
2023-04-03T22:59:20.314Z,99.90
2023-04-03T23:01:53.070Z,99.90
2023-04-03T23:04:25.747Z,99.90
2023-04-03T23:07:00.005Z,99.90
2023-04-03T23:09:32.731Z,99.90
2023-04-03T23:12:05.814Z,99.90
2023-04-03T23:14:38.580Z,99.90
2023-04-03T23:17:11.364Z,99.90
2023-04-03T23:19:44.090Z,99.90
2023-04-03T23:22:16.769Z,99.90
2023-04-03T23:24:49.682Z,99.90
2023-04-03T23:27:22.582Z,99.90
2023-04-03T23:29:55.575Z,99.90
2023-04-03T23:32:30.083Z,99.90
2023-04-03T23:35:03.842Z,99.90
2023-04-03T23:37:36.901Z,99.90
2023-04-03T23:40:10.361Z,99.90
2023-04-03T23:42:43.165Z,99.90
2023-04-03T23:45:15.942Z,99.90
2023-04-03T23:47:49.018Z,99.90
2023-04-03T23:50:21.738Z,99.90
2023-04-03T23:52:54.573Z,99.90
2023-04-03T23:55:27.472Z,99.90
2023-04-03T23:58:00.151Z,99.90
